createdAt,value
2023-03-16T00:00:28.082Z,81.29
2023-03-16T00:01:27.632Z,81.39
2023-03-16T00:02:27.974Z,81.49
2023-03-16T00:03:27.700Z,81.29
2023-03-16T00:04:48.378Z,81.39
2023-03-16T00:05:27.738Z,81.49
2023-03-16T00:06:27.517Z,81.29
2023-03-16T00:07:27.734Z,81.09
2023-03-16T00:08:27.515Z,80.98
2023-03-16T00:09:27.742Z,80.98
2023-03-16T00:10:27.940Z,81.05
2023-03-16T00:11:27.757Z,80.98
2023-03-16T00:12:27.512Z,81.15
2023-03-16T00:13:27.773Z,80.94
2023-03-16T00:14:49.072Z,80.84
2023-03-16T00:15:27.341Z,80.94
2023-03-16T00:16:27.653Z,81.05
2023-03-16T00:17:27.358Z,81.19
2023-03-16T00:18:27.631Z,81.15
2023-03-16T00:19:27.344Z,81.25
2023-03-16T00:20:27.891Z,81.15
2023-03-16T00:21:27.363Z,81.35
2023-03-16T00:22:27.638Z,81.15
2023-03-16T00:23:27.608Z,81.25
2023-03-16T00:24:48.787Z,81.35
2023-03-16T00:25:27.591Z,81.35
2023-03-16T00:26:27.325Z,81.15
2023-03-16T00:27:27.577Z,81.15
2023-03-16T00:28:27.336Z,81.35
2023-03-16T00:29:27.590Z,81.35
2023-03-16T00:30:27.496Z,81.35
2023-03-16T00:31:27.124Z,81.25
2023-03-16T00:32:27.400Z,81.35
2023-03-16T00:33:27.111Z,81.35
2023-03-16T00:34:47.874Z,81.46
2023-03-16T00:35:27.181Z,81.46
2023-03-16T00:36:27.451Z,81.46
2023-03-16T00:37:27.263Z,81.46
2023-03-16T00:38:27.470Z,81.46
2023-03-16T00:39:27.211Z,81.35
2023-03-16T00:40:27.643Z,81.35
2023-03-16T00:41:27.237Z,81.35
2023-03-16T00:42:27.551Z,81.46
2023-03-16T00:43:27.264Z,81.67
2023-03-16T00:44:47.554Z,81.56
2023-03-16T00:45:27.265Z,81.35
2023-03-16T00:46:27.039Z,81.25
2023-03-16T00:47:27.289Z,81.15
2023-03-16T00:48:27.012Z,81.15
2023-03-16T00:49:27.262Z,81.05
2023-03-16T00:50:27.191Z,81.05
2023-03-16T00:51:27.269Z,80.94
2023-03-16T00:52:27.192Z,81.05
2023-03-16T00:53:28.362Z,81.05
2023-03-16T00:54:47.223Z,80.94
2023-03-16T00:55:28.729Z,80.94
2023-03-16T00:56:28.513Z,80.74
2023-03-16T00:57:27.905Z,80.84
2023-03-16T00:58:27.913Z,80.84
2023-03-16T00:59:28.573Z,80.74
2023-03-16T01:00:28.911Z,80.63
2023-03-16T01:01:28.669Z,80.74
2023-03-16T01:02:28.616Z,80.74
2023-03-16T01:03:28.435Z,80.94
2023-03-16T01:04:47.194Z,81.05
2023-03-16T01:05:27.908Z,80.94
2023-03-16T01:06:28.780Z,80.84
2023-03-16T01:07:28.571Z,80.84
2023-03-16T01:08:28.381Z,80.84
2023-03-16T01:09:28.679Z,80.84
2023-03-16T01:10:27.548Z,81.05
2023-03-16T01:11:28.392Z,80.94
2023-03-16T01:12:27.412Z,80.84
2023-03-16T01:13:28.474Z,80.94
2023-03-16T01:14:46.814Z,81.05
2023-03-16T01:15:28.521Z,81.05
2023-03-16T01:16:28.342Z,81.05
2023-03-16T01:17:28.558Z,81.05
2023-03-16T01:18:27.958Z,80.94
2023-03-16T01:19:28.231Z,80.74
2023-03-16T01:20:27.595Z,80.94
2023-03-16T01:21:28.369Z,80.94
2023-03-16T01:22:28.160Z,81.15
2023-03-16T01:23:28.461Z,81.25
2023-03-16T01:24:46.808Z,81.05
2023-03-16T01:25:28.016Z,80.94
2023-03-16T01:26:27.003Z,80.94
2023-03-16T01:27:28.181Z,80.94
2023-03-16T01:28:28.451Z,81.01
2023-03-16T01:29:28.266Z,81.01
2023-03-16T01:30:28.348Z,81.01
2023-03-16T01:31:27.402Z,81.01
2023-03-16T01:32:28.139Z,81.11
2023-03-16T01:33:28.443Z,81.01
2023-03-16T01:34:46.761Z,81.11
2023-03-16T01:35:28.032Z,81.01
2023-03-16T01:36:28.314Z,81.11
2023-03-16T01:37:27.404Z,81.11
2023-03-16T01:38:26.958Z,81.11
2023-03-16T01:39:28.165Z,80.90
2023-03-16T01:40:27.391Z,80.90
2023-03-16T01:41:28.211Z,80.90
2023-03-16T01:42:26.781Z,80.94
2023-03-16T01:43:27.398Z,81.01
2023-03-16T01:44:46.845Z,81.11
2023-03-16T01:45:28.076Z,81.01
2023-03-16T01:46:27.890Z,81.01
2023-03-16T01:47:28.146Z,81.21
2023-03-16T01:48:27.932Z,81.21
2023-03-16T01:49:27.400Z,80.90
2023-03-16T01:50:26.814Z,80.90
2023-03-16T01:51:26.780Z,81.01
2023-03-16T01:52:26.521Z,81.01
2023-03-16T01:53:26.887Z,80.90
2023-03-16T01:54:47.252Z,80.90
2023-03-16T01:55:26.374Z,80.80
2023-03-16T01:56:26.618Z,80.90
2023-03-16T01:57:26.412Z,80.70
2023-03-16T01:58:26.653Z,80.70
2023-03-16T01:59:26.415Z,80.60
2023-03-16T02:00:27.005Z,80.70
2023-03-16T02:01:26.448Z,80.70
2023-03-16T02:02:26.641Z,80.80
2023-03-16T02:03:26.405Z,80.90
2023-03-16T02:04:47.895Z,81.11
2023-03-16T02:05:28.555Z,81.01
2023-03-16T02:06:26.268Z,81.11
2023-03-16T02:07:26.535Z,81.21
2023-03-16T02:08:27.628Z,81.01
2023-03-16T02:09:27.038Z,81.01
2023-03-16T02:10:26.737Z,81.63
2023-03-16T02:11:26.162Z,81.63
2023-03-16T02:12:26.402Z,81.32
2023-03-16T02:13:26.163Z,81.52
2023-03-16T02:14:47.900Z,81.52
2023-03-16T02:15:26.223Z,81.52
2023-03-16T02:16:26.460Z,81.73
2023-03-16T02:17:26.210Z,81.84
2023-03-16T02:18:26.440Z,81.94
2023-03-16T02:19:26.209Z,82.25
2023-03-16T02:20:26.761Z,81.73
2023-03-16T02:21:26.201Z,81.52
2023-03-16T02:22:26.446Z,81.73
2023-03-16T02:23:26.196Z,82.15
2023-03-16T02:24:46.942Z,82.35
2023-03-16T02:25:26.269Z,82.35
2023-03-16T02:26:26.031Z,82.56
2023-03-16T02:27:26.343Z,81.63
2023-03-16T02:28:26.066Z,81.73
2023-03-16T02:29:26.323Z,81.94
2023-03-16T02:30:26.464Z,82.15
2023-03-16T02:31:26.359Z,82.45
2023-03-16T02:32:26.111Z,82.56
2023-03-16T02:33:26.341Z,82.76
2023-03-16T02:34:47.650Z,82.97
2023-03-16T02:35:26.032Z,82.56
2023-03-16T02:36:26.192Z,82.35
2023-03-16T02:37:25.957Z,82.66
2023-03-16T02:38:26.184Z,83.18
2023-03-16T02:39:25.951Z,82.87
2023-03-16T02:40:26.545Z,82.45
2023-03-16T02:41:25.957Z,82.45
2023-03-16T02:42:26.203Z,82.87
2023-03-16T02:43:25.962Z,82.66
2023-03-16T02:44:47.694Z,82.87
2023-03-16T02:45:26.005Z,82.66
2023-03-16T02:46:26.349Z,82.56
2023-03-16T02:47:26.025Z,82.76
2023-03-16T02:48:25.767Z,82.76
2023-03-16T02:49:26.023Z,82.97
2023-03-16T02:50:26.103Z,83.07
2023-03-16T02:51:26.034Z,82.97
2023-03-16T02:52:25.782Z,83.07
2023-03-16T02:53:26.044Z,83.07
2023-03-16T02:54:47.287Z,83.39
2023-03-16T02:55:26.089Z,83.28
2023-03-16T02:56:25.826Z,83.07
2023-03-16T02:57:26.097Z,83.07
2023-03-16T02:58:25.842Z,83.18
2023-03-16T02:59:26.076Z,82.97
2023-03-16T03:00:26.129Z,82.87
2023-03-16T03:01:26.124Z,82.76
2023-03-16T03:02:25.867Z,82.66
2023-03-16T03:03:26.140Z,82.66
2023-03-16T03:04:47.336Z,83.07
2023-03-16T03:05:25.650Z,83.07
2023-03-16T03:06:25.899Z,83.39
2023-03-16T03:07:25.653Z,83.59
2023-03-16T03:08:25.898Z,83.28
2023-03-16T03:09:25.667Z,83.11
2023-03-16T03:10:26.199Z,83.01
2023-03-16T03:11:25.658Z,83.32
2023-03-16T03:12:25.922Z,83.32
2023-03-16T03:13:25.654Z,83.32
2023-03-16T03:14:46.465Z,83.22
2023-03-16T03:15:25.758Z,83.32
2023-03-16T03:16:25.555Z,83.32
2023-03-16T03:17:25.775Z,83.22
2023-03-16T03:18:25.543Z,83.22
2023-03-16T03:19:25.836Z,83.63
2023-03-16T03:20:25.646Z,83.63
2023-03-16T03:21:25.829Z,83.42
2023-03-16T03:22:25.632Z,83.42
2023-03-16T03:23:25.898Z,83.53
2023-03-16T03:24:45.707Z,83.53
2023-03-16T03:25:25.488Z,83.53
2023-03-16T03:26:25.731Z,83.32
2023-03-16T03:27:25.554Z,83.22
2023-03-16T03:28:25.805Z,83.32
2023-03-16T03:29:25.548Z,83.11
2023-03-16T03:30:26.272Z,83.22
2023-03-16T03:31:25.653Z,83.42
2023-03-16T03:32:25.873Z,83.53
2023-03-16T03:33:25.670Z,83.53
2023-03-16T03:34:45.498Z,83.73
2023-03-16T03:35:25.826Z,83.63
2023-03-16T03:36:25.561Z,83.32
2023-03-16T03:37:25.343Z,83.01
2023-03-16T03:38:25.600Z,83.22
2023-03-16T03:39:25.395Z,83.11
2023-03-16T03:40:26.055Z,82.80
2023-03-16T03:41:25.440Z,82.70
2023-03-16T03:42:25.782Z,82.70
2023-03-16T03:43:25.514Z,83.01
2023-03-16T03:44:45.977Z,83.01
2023-03-16T03:45:25.237Z,82.90
2023-03-16T03:46:25.640Z,82.60
2023-03-16T03:47:25.338Z,82.60
2023-03-16T03:48:25.670Z,82.50
2023-03-16T03:49:25.455Z,82.90
2023-03-16T03:50:25.376Z,82.90
2023-03-16T03:51:25.493Z,82.60
2023-03-16T03:52:25.273Z,82.70
2023-03-16T03:53:25.589Z,82.80
2023-03-16T03:54:46.372Z,83.11
2023-03-16T03:55:25.231Z,82.90
2023-03-16T03:56:25.480Z,82.39
2023-03-16T03:57:25.237Z,82.70
2023-03-16T03:58:25.501Z,82.70
2023-03-16T03:59:25.299Z,82.50
2023-03-16T04:00:25.822Z,82.70
2023-03-16T04:01:25.309Z,82.70
2023-03-16T04:02:25.296Z,82.50
2023-03-16T04:03:25.372Z,82.50
2023-03-16T04:04:46.560Z,82.90
2023-03-16T04:05:25.370Z,82.60
2023-03-16T04:06:25.111Z,82.29
2023-03-16T04:07:25.366Z,82.60
2023-03-16T04:08:25.104Z,82.70
2023-03-16T04:09:25.358Z,82.50
2023-03-16T04:10:25.214Z,82.60
2023-03-16T04:11:25.385Z,82.39
2023-03-16T04:12:25.129Z,82.50
2023-03-16T04:13:25.392Z,82.60
2023-03-16T04:14:46.014Z,82.70
2023-03-16T04:15:24.934Z,82.25
2023-03-16T04:16:25.170Z,82.35
2023-03-16T04:17:24.936Z,82.76
2023-03-16T04:18:25.161Z,82.66
2023-03-16T04:19:24.936Z,82.18
2023-03-16T04:20:25.568Z,82.15
2023-03-16T04:21:24.970Z,82.04
2023-03-16T04:22:25.226Z,82.04
2023-03-16T04:23:25.972Z,82.25
2023-03-16T04:24:45.278Z,81.94
2023-03-16T04:25:24.971Z,81.73
2023-03-16T04:26:25.226Z,81.73
2023-03-16T04:27:24.972Z,81.63
2023-03-16T04:28:25.232Z,81.73
2023-03-16T04:29:24.990Z,81.42
2023-03-16T04:30:25.265Z,81.73
2023-03-16T04:31:25.030Z,81.52
2023-03-16T04:32:25.253Z,81.52
2023-03-16T04:33:25.004Z,81.32
2023-03-16T04:34:44.756Z,81.32
2023-03-16T04:35:25.026Z,81.42
2023-03-16T04:36:24.770Z,81.32
2023-03-16T04:37:25.043Z,81.11
2023-03-16T04:38:24.788Z,81.11
2023-03-16T04:39:25.038Z,81.21
2023-03-16T04:40:24.777Z,81.42
2023-03-16T04:41:25.039Z,81.32
2023-03-16T04:42:26.256Z,81.32
2023-03-16T04:43:25.510Z,81.52
2023-03-16T04:44:45.589Z,81.73
2023-03-16T04:45:24.745Z,81.42
2023-03-16T04:46:25.031Z,81.32
2023-03-16T04:47:24.778Z,81.52
2023-03-16T04:48:25.013Z,81.42
2023-03-16T04:49:24.791Z,81.73
2023-03-16T04:50:25.052Z,81.94
2023-03-16T04:51:24.788Z,82.04
2023-03-16T04:52:24.550Z,81.94
2023-03-16T04:53:24.799Z,82.15
2023-03-16T04:54:45.522Z,82.45
2023-03-16T04:55:24.985Z,82.35
2023-03-16T04:56:24.725Z,82.45
2023-03-16T04:57:24.982Z,82.66
2023-03-16T04:58:24.708Z,82.76
2023-03-16T04:59:24.471Z,82.66
2023-03-16T05:00:24.733Z,82.97
2023-03-16T05:01:24.525Z,83.07
2023-03-16T05:02:24.763Z,83.18
2023-03-16T05:03:24.520Z,83.07
2023-03-16T05:04:46.268Z,83.28
2023-03-16T05:05:24.676Z,83.49
2023-03-16T05:06:24.887Z,83.28
2023-03-16T05:07:24.652Z,83.28
2023-03-16T05:08:24.392Z,83.70
2023-03-16T05:09:24.655Z,83.80
2023-03-16T05:10:24.418Z,83.49
2023-03-16T05:11:24.649Z,83.70
2023-03-16T05:12:24.409Z,83.80
2023-03-16T05:13:24.671Z,83.49
2023-03-16T05:14:46.026Z,83.90
2023-03-16T05:15:24.302Z,83.80
2023-03-16T05:16:24.583Z,83.70
2023-03-16T05:17:24.314Z,83.80
2023-03-16T05:18:24.575Z,83.90
2023-03-16T05:19:24.344Z,84.00
2023-03-16T05:20:24.594Z,84.00
2023-03-16T05:21:24.367Z,83.90
2023-03-16T05:22:24.632Z,84.11
2023-03-16T05:23:24.376Z,84.31
2023-03-16T05:24:45.034Z,84.31
2023-03-16T05:25:24.473Z,84.31
2023-03-16T05:26:24.248Z,84.42
2023-03-16T05:27:24.495Z,84.11
2023-03-16T05:28:24.274Z,84.11
2023-03-16T05:29:24.536Z,84.11
2023-03-16T05:30:24.301Z,84.00
2023-03-16T05:31:24.626Z,83.90
2023-03-16T05:32:24.360Z,84.00
2023-03-16T05:33:24.570Z,84.21
2023-03-16T05:34:45.822Z,84.11
2023-03-16T05:35:24.382Z,84.31
2023-03-16T05:36:24.396Z,84.42
2023-03-16T05:37:24.143Z,84.42
2023-03-16T05:38:24.390Z,84.31
2023-03-16T05:39:24.137Z,84.00
2023-03-16T05:40:24.428Z,83.90
2023-03-16T05:41:24.177Z,83.90
2023-03-16T05:42:24.440Z,84.00
2023-03-16T05:43:24.173Z,83.65
2023-03-16T05:44:44.488Z,83.76
2023-03-16T05:45:24.303Z,83.76
2023-03-16T05:46:24.171Z,83.55
2023-03-16T05:47:24.264Z,83.14
2023-03-16T05:48:24.047Z,83.45
2023-03-16T05:49:24.288Z,83.55
2023-03-16T05:50:24.044Z,83.97
2023-03-16T05:51:24.288Z,83.76
2023-03-16T05:52:24.049Z,83.76
2023-03-16T05:53:24.297Z,83.76
2023-03-16T05:54:44.084Z,83.76
2023-03-16T05:55:24.322Z,83.65
2023-03-16T05:56:24.074Z,83.55
2023-03-16T05:57:24.316Z,83.45
2023-03-16T05:58:24.092Z,83.45
2023-03-16T05:59:24.330Z,83.45
2023-03-16T06:00:24.087Z,83.25
2023-03-16T06:01:24.350Z,82.93
2023-03-16T06:02:24.126Z,83.14
2023-03-16T06:03:23.873Z,83.04
2023-03-16T06:04:44.138Z,82.73
2023-03-16T06:05:23.851Z,82.52
2023-03-16T06:06:24.116Z,82.42
2023-03-16T06:07:23.865Z,82.62
2023-03-16T06:08:24.140Z,82.52
2023-03-16T06:09:23.879Z,82.52
2023-03-16T06:10:24.166Z,82.10
2023-03-16T06:11:23.880Z,81.86
2023-03-16T06:12:24.146Z,81.76
2023-03-16T06:13:23.904Z,81.76
2023-03-16T06:14:44.217Z,81.86
2023-03-16T06:15:25.425Z,81.86
2023-03-16T06:16:24.669Z,81.86
2023-03-16T06:17:25.563Z,81.76
2023-03-16T06:18:25.068Z,82.38
2023-03-16T06:19:25.288Z,82.28
2023-03-16T06:20:25.125Z,82.17
2023-03-16T06:21:25.452Z,81.56
2023-03-16T06:22:24.784Z,81.56
2023-03-16T06:23:25.544Z,81.45
2023-03-16T06:24:43.893Z,81.86
2023-03-16T06:25:25.086Z,81.86
2023-03-16T06:26:24.902Z,81.56
2023-03-16T06:27:24.565Z,81.35
2023-03-16T06:28:24.595Z,81.35
2023-03-16T06:29:25.421Z,81.56
2023-03-16T06:30:25.247Z,81.45
2023-03-16T06:31:25.012Z,81.56
2023-03-16T06:32:25.310Z,81.82
2023-03-16T06:33:25.098Z,81.82
2023-03-16T06:34:43.974Z,81.93
2023-03-16T06:35:24.696Z,82.03
2023-03-16T06:36:24.507Z,82.45
2023-03-16T06:37:24.469Z,82.03
2023-03-16T06:38:24.500Z,81.82
2023-03-16T06:39:24.490Z,81.93
2023-03-16T06:40:25.121Z,82.03
2023-03-16T06:41:25.391Z,82.24
2023-03-16T06:42:25.211Z,82.34
2023-03-16T06:43:25.096Z,82.65
2023-03-16T06:44:43.980Z,82.55
2023-03-16T06:45:24.082Z,82.24
2023-03-16T06:46:25.059Z,81.51
2023-03-16T06:47:25.323Z,81.72
2023-03-16T06:48:25.122Z,81.72
2023-03-16T06:49:24.959Z,81.93
2023-03-16T06:50:24.886Z,81.72
2023-03-16T06:51:24.091Z,81.51
2023-03-16T06:52:24.089Z,81.72
2023-03-16T06:53:24.869Z,81.41
2023-03-16T06:54:43.595Z,81.82
2023-03-16T06:55:23.330Z,81.82
2023-03-16T06:56:23.603Z,81.82
2023-03-16T06:57:23.321Z,81.31
2023-03-16T06:58:23.729Z,81.41
2023-03-16T06:59:23.348Z,82.24
2023-03-16T07:00:23.607Z,82.65
2023-03-16T07:01:23.438Z,81.72
2023-03-16T07:02:23.650Z,81.72
2023-03-16T07:03:23.371Z,81.27
2023-03-16T07:04:45.141Z,81.58
2023-03-16T07:05:23.371Z,81.99
2023-03-16T07:06:22.738Z,81.68
2023-03-16T07:07:22.713Z,81.10
2023-03-16T07:08:22.714Z,81.17
2023-03-16T07:09:22.700Z,81.58
2023-03-16T07:10:22.741Z,80.96
2023-03-16T07:11:22.663Z,81.07
2023-03-16T07:12:22.666Z,80.86
2023-03-16T07:13:22.662Z,80.65
2023-03-16T07:14:44.383Z,80.14
2023-03-16T07:15:22.604Z,80.04
2023-03-16T07:16:22.657Z,80.24
2023-03-16T07:17:22.601Z,80.34
2023-03-16T07:18:22.622Z,80.34
2023-03-16T07:19:22.598Z,80.44
2023-03-16T07:20:23.748Z,79.62
2023-03-16T07:21:23.371Z,79.72
2023-03-16T07:22:23.131Z,80.04
2023-03-16T07:23:23.375Z,79.62
2023-03-16T07:24:44.643Z,79.79
2023-03-16T07:25:23.442Z,80.30
2023-03-16T07:26:23.173Z,79.48
2023-03-16T07:27:23.450Z,79.48
2023-03-16T07:28:23.219Z,79.69
2023-03-16T07:29:23.450Z,79.27
2023-03-16T07:30:23.185Z,79.38
2023-03-16T07:31:23.479Z,79.79
2023-03-16T07:32:23.324Z,79.38
2023-03-16T07:33:22.980Z,78.86
2023-03-16T07:34:43.946Z,78.14
2023-03-16T07:35:23.256Z,78.34
2023-03-16T07:36:23.011Z,77.94
2023-03-16T07:37:25.561Z,77.83
2023-03-16T07:38:23.009Z,77.73
2023-03-16T07:39:23.259Z,78.11
2023-03-16T07:40:23.017Z,78.31
2023-03-16T07:41:23.284Z,78.31
2023-03-16T07:42:23.051Z,78.00
2023-03-16T07:43:23.290Z,77.69
2023-03-16T07:44:43.642Z,77.59
2023-03-16T07:45:22.931Z,77.69
2023-03-16T07:46:23.276Z,78.41
2023-03-16T07:47:26.249Z,78.11
2023-03-16T07:48:23.180Z,78.41
2023-03-16T07:49:22.904Z,78.11
2023-03-16T07:50:23.177Z,77.38
2023-03-16T07:51:22.895Z,77.90
2023-03-16T07:52:23.165Z,78.21
2023-03-16T07:53:23.901Z,77.90
2023-03-16T07:54:44.671Z,77.35
2023-03-16T07:55:22.999Z,77.14
2023-03-16T07:56:22.742Z,77.35
2023-03-16T07:57:22.231Z,77.45
2023-03-16T07:58:22.198Z,76.79
2023-03-16T07:59:22.196Z,77.21
2023-03-16T08:00:22.189Z,76.79
2023-03-16T08:01:23.000Z,75.42
2023-03-16T08:02:22.752Z,75.52
2023-03-16T08:03:23.100Z,76.14
2023-03-16T08:04:44.213Z,75.18
2023-03-16T08:05:22.981Z,74.98
2023-03-16T08:06:22.756Z,74.40
2023-03-16T08:07:23.008Z,74.60
2023-03-16T08:08:22.760Z,74.40
2023-03-16T08:09:22.999Z,74.40
2023-03-16T08:10:22.764Z,74.29
2023-03-16T08:11:22.984Z,74.29
2023-03-16T08:12:25.313Z,74.80
2023-03-16T08:13:23.007Z,74.70
2023-03-16T08:14:44.327Z,75.52
2023-03-16T08:15:22.638Z,75.84
2023-03-16T08:16:22.983Z,76.45
2023-03-16T08:17:22.640Z,75.22
2023-03-16T08:18:22.896Z,75.32
2023-03-16T08:19:22.654Z,74.60
2023-03-16T08:20:23.016Z,74.19
2023-03-16T08:21:22.659Z,73.85
2023-03-16T08:22:22.965Z,73.74
2023-03-16T08:23:22.715Z,73.64
2023-03-16T08:24:43.655Z,73.64
2023-03-16T08:25:22.804Z,73.85
2023-03-16T08:26:22.589Z,73.50
2023-03-16T08:27:22.827Z,73.13
2023-03-16T08:28:22.624Z,73.74
2023-03-16T08:29:22.847Z,73.50
2023-03-16T08:30:22.602Z,73.50
2023-03-16T08:31:22.407Z,73.50
2023-03-16T08:32:23.677Z,73.50
2023-03-16T08:33:23.387Z,73.71
2023-03-16T08:34:44.159Z,73.47
2023-03-16T08:35:22.431Z,73.68
2023-03-16T08:36:22.711Z,72.96
2023-03-16T08:37:22.434Z,73.36
2023-03-16T08:38:22.720Z,72.34
2023-03-16T08:39:22.435Z,72.24
2023-03-16T08:40:22.756Z,72.75
2023-03-16T08:41:22.479Z,72.82
2023-03-16T08:42:22.747Z,72.82
2023-03-16T08:43:22.490Z,73.02
2023-03-16T08:44:44.280Z,73.23
2023-03-16T08:45:22.548Z,72.41
2023-03-16T08:46:22.356Z,71.89
2023-03-16T08:47:22.546Z,71.38
2023-03-16T08:48:22.285Z,71.59
2023-03-16T08:49:22.528Z,71.28
2023-03-16T08:50:22.309Z,71.51
2023-03-16T08:51:22.566Z,71.62
2023-03-16T08:52:23.035Z,71.51
2023-03-16T08:53:21.646Z,72.13
2023-03-16T08:54:55.994Z,72.85
2023-03-16T08:55:22.603Z,71.62
2023-03-16T08:56:22.402Z,72.13
2023-03-16T08:57:22.128Z,71.28
2023-03-16T08:58:22.398Z,71.08
2023-03-16T08:59:29.706Z,71.48
2023-03-16T09:00:23.435Z,71.48
2023-03-16T09:01:22.218Z,71.79
2023-03-16T09:02:22.450Z,71.25
2023-03-16T09:03:22.130Z,71.04
2023-03-16T09:04:43.935Z,70.29
2023-03-16T09:05:22.177Z,68.85
2023-03-16T09:06:22.485Z,69.16
2023-03-16T09:07:22.179Z,69.37
2023-03-16T09:08:22.452Z,69.16
2023-03-16T09:09:22.184Z,69.54
2023-03-16T09:10:22.469Z,68.51
2023-03-16T09:11:22.233Z,67.90
2023-03-16T09:12:21.956Z,67.90
2023-03-16T09:13:22.185Z,67.05
2023-03-16T09:14:42.484Z,65.89
2023-03-16T09:15:22.229Z,65.75
2023-03-16T09:16:22.033Z,64.57
2023-03-16T09:17:22.244Z,63.79
2023-03-16T09:18:21.982Z,63.12
2023-03-16T09:19:24.197Z,61.97
2023-03-16T09:20:34.845Z,61.79
2023-03-16T09:21:23.273Z,62.30
2023-03-16T09:22:22.030Z,63.12
2023-03-16T09:23:22.429Z,61.97
2023-03-16T09:24:42.075Z,61.37
2023-03-16T09:25:22.301Z,59.61
2023-03-16T09:26:22.035Z,58.05
2023-03-16T09:27:22.385Z,58.80
2023-03-16T09:28:22.296Z,59.71
2023-03-16T09:29:21.820Z,58.80
2023-03-16T09:30:22.078Z,58.41
2023-03-16T09:31:21.874Z,58.75
2023-03-16T09:32:21.272Z,59.26
2023-03-16T09:33:22.048Z,59.66
2023-03-16T09:34:42.786Z,58.80
2023-03-16T09:35:22.043Z,58.83
2023-03-16T09:36:21.804Z,60.60
2023-03-16T09:37:22.044Z,61.82
2023-03-16T09:38:21.789Z,62.13
2023-03-16T09:39:22.054Z,61.99
2023-03-16T09:40:21.788Z,61.73
2023-03-16T09:41:22.541Z,59.14
2023-03-16T09:42:21.804Z,55.88
2023-03-16T09:43:22.077Z,54.69
2023-03-16T09:44:41.852Z,53.60
2023-03-16T09:45:22.065Z,54.44
2023-03-16T09:46:21.900Z,54.44
2023-03-16T09:47:22.074Z,53.55
2023-03-16T09:48:21.060Z,55.53
2023-03-16T09:49:21.111Z,55.81
2023-03-16T09:50:21.840Z,53.91
2023-03-16T09:51:21.637Z,52.89
2023-03-16T09:52:21.847Z,54.18
2023-03-16T09:54:13.112Z,53.58
2023-03-16T09:54:41.066Z,49.05
2023-03-16T09:55:21.815Z,49.30
2023-03-16T09:56:49.681Z,49.16
2023-03-16T09:57:21.893Z,46.05
2023-03-16T09:58:21.629Z,47.06
2023-03-16T09:59:21.886Z,47.13
2023-03-16T10:00:29.887Z,48.65
2023-03-16T10:01:24.441Z,47.67
2023-03-16T10:02:21.627Z,47.59
2023-03-16T10:03:21.930Z,49.25
2023-03-16T10:04:41.685Z,50.11
2023-03-16T10:05:21.898Z,50.06
2023-03-16T10:06:21.649Z,49.17
2023-03-16T10:07:21.411Z,48.61
2023-03-16T10:10:12.148Z,48.22
2023-03-16T10:10:16.948Z,44.61
2023-03-16T10:11:17.697Z,44.41
2023-03-16T10:12:17.449Z,45.26
2023-03-16T10:13:20.690Z,44.51
2023-03-16T10:14:17.553Z,44.55
2023-03-16T10:15:39.227Z,46.25
2023-03-16T10:16:17.512Z,46.62
2023-03-16T10:17:17.777Z,48.18
2023-03-16T10:18:17.534Z,47.38
2023-03-16T10:19:17.764Z,49.30
2023-03-16T10:20:17.574Z,49.38
2023-03-16T10:21:17.771Z,49.27
2023-03-16T10:22:17.534Z,49.07
2023-03-16T10:23:17.780Z,47.74
2023-03-16T10:24:17.551Z,46.80
2023-03-16T10:25:37.819Z,47.41
2023-03-16T10:26:17.575Z,47.13
2023-03-16T10:27:17.355Z,48.46
2023-03-16T10:28:17.634Z,49.80
2023-03-16T10:29:17.401Z,49.96
2023-03-16T10:30:17.675Z,48.19
2023-03-16T10:31:17.423Z,48.22
2023-03-16T10:32:17.677Z,46.31
2023-03-16T10:33:17.466Z,45.90
2023-03-16T10:34:17.712Z,45.61
2023-03-16T10:35:37.450Z,45.73
2023-03-16T10:36:17.232Z,46.33
2023-03-16T10:37:17.443Z,45.75
2023-03-16T10:38:18.099Z,47.00
2023-03-16T10:39:17.486Z,46.70
2023-03-16T10:40:17.251Z,46.78
2023-03-16T10:41:17.496Z,47.49
2023-03-16T10:42:17.256Z,47.51
2023-03-16T10:43:17.527Z,47.75
2023-03-16T10:44:17.268Z,49.19
2023-03-16T10:45:38.292Z,48.54
2023-03-16T10:46:17.536Z,48.03
2023-03-16T10:47:17.564Z,48.95
2023-03-16T10:48:17.327Z,47.43
2023-03-16T10:49:17.102Z,48.65
2023-03-16T10:50:17.361Z,48.22
2023-03-16T10:51:17.102Z,48.85
2023-03-16T10:52:17.361Z,47.51
2023-03-16T10:53:17.107Z,47.69
2023-03-16T11:01:43.907Z,46.99
2023-03-16T11:02:09.989Z,39.27
2023-03-16T11:04:08.047Z,39.59
2023-03-16T11:04:13.839Z,38.85
2023-03-16T11:05:13.613Z,39.91
2023-03-16T11:06:13.352Z,40.37
2023-03-16T11:07:13.641Z,40.19
2023-03-16T11:08:13.394Z,40.59
2023-03-16T11:09:13.670Z,40.28
2023-03-16T11:10:13.416Z,41.01
2023-03-16T11:11:13.669Z,41.27
2023-03-16T11:12:33.433Z,41.59
2023-03-16T11:21:26.196Z,41.43
2023-03-16T11:21:30.968Z,36.43
2023-03-16T11:22:31.722Z,38.39
2023-03-16T11:24:40.498Z,38.60
2023-03-16T11:25:04.814Z,38.90
2023-03-16T11:25:46.116Z,39.01
2023-03-16T11:26:51.351Z,38.79
2023-03-16T11:31:32.143Z,39.07
2023-03-16T11:31:36.959Z,37.90
2023-03-16T11:32:58.296Z,37.11
2023-03-16T11:33:37.547Z,37.75
2023-03-16T11:34:37.828Z,37.77
2023-03-16T11:35:41.990Z,37.59
2023-03-16T11:36:38.815Z,39.21
2023-03-16T11:37:37.606Z,38.82
2023-03-16T11:38:37.965Z,39.06
2023-03-16T11:39:37.614Z,40.69
2023-03-16T11:40:37.878Z,40.70
2023-03-16T11:41:37.696Z,41.89
2023-03-16T11:42:57.452Z,41.09
2023-03-16T11:43:37.665Z,40.47
2023-03-16T11:44:38.245Z,41.69
2023-03-16T11:45:37.730Z,40.39
2023-03-16T11:46:37.596Z,40.11
2023-03-16T11:47:37.755Z,40.89
2023-03-16T11:48:37.512Z,41.27
2023-03-16T11:49:37.257Z,39.16
2023-03-16T11:50:37.544Z,40.00
2023-03-16T11:51:37.278Z,41.01
2023-03-16T11:52:57.558Z,40.95
2023-03-16T11:53:37.293Z,41.57
2023-03-16T11:54:37.579Z,41.91
2023-03-16T11:55:37.330Z,42.54
2023-03-16T11:56:37.598Z,43.37
2023-03-16T11:57:37.344Z,43.59
2023-03-16T11:58:37.636Z,43.79
2023-03-16T11:59:39.614Z,44.09
2023-03-16T12:00:37.621Z,44.59
2023-03-16T12:01:41.080Z,45.70
2023-03-16T12:02:57.855Z,45.48
2023-03-16T12:03:38.949Z,44.78
2023-03-16T12:04:38.672Z,43.46
2023-03-16T12:05:38.948Z,43.77
2023-03-16T12:06:37.293Z,43.38
2023-03-16T12:07:39.027Z,43.79
2023-03-16T12:08:37.773Z,44.29
2023-03-16T12:09:37.261Z,43.89
2023-03-16T12:10:37.525Z,44.29
2023-03-16T12:11:40.983Z,44.90
2023-03-16T12:12:58.090Z,44.35
2023-03-16T12:13:37.441Z,45.26
2023-03-16T12:14:36.589Z,43.52
2023-03-16T12:15:36.547Z,43.71
2023-03-16T12:16:48.704Z,42.98
2023-03-16T12:17:39.146Z,43.06
2023-03-16T12:18:37.066Z,42.01
2023-03-16T12:19:37.759Z,39.98
2023-03-16T12:20:38.590Z,40.50
2023-03-16T12:21:36.557Z,40.83
2023-03-16T12:22:57.972Z,41.35
2023-03-16T12:23:38.779Z,41.25
2023-03-16T12:24:38.518Z,41.63
2023-03-16T12:25:37.765Z,41.05
2023-03-16T12:26:38.768Z,41.67
2023-03-16T12:27:37.736Z,42.18
2023-03-16T12:28:38.799Z,41.39
2023-03-16T12:29:38.145Z,42.10
2023-03-16T12:30:37.766Z,41.89
2023-03-16T12:31:36.820Z,41.65
2023-03-16T12:32:56.360Z,41.01
2023-03-16T12:33:38.594Z,40.41
2023-03-16T12:34:38.421Z,40.48
2023-03-16T12:35:38.807Z,40.15
2023-03-16T12:36:38.595Z,38.92
2023-03-16T12:37:37.925Z,38.99
2023-03-16T12:38:45.282Z,37.15
2023-03-16T12:42:22.611Z,37.45
2023-03-16T12:42:29.028Z,37.18
2023-03-16T12:43:29.869Z,38.10
2023-03-16T12:44:49.578Z,39.04
2023-03-16T12:45:28.228Z,38.86
2023-03-16T12:46:28.138Z,39.66
2023-03-16T12:47:27.898Z,39.48
2023-03-16T12:48:28.150Z,40.22
2023-03-16T12:49:27.927Z,40.16
2023-03-16T12:50:28.173Z,41.39
2023-03-16T12:51:27.917Z,41.81
2023-03-16T12:52:28.165Z,41.83
2023-03-16T12:53:27.922Z,43.14
2023-03-16T12:54:49.286Z,44.37
2023-03-16T12:55:28.408Z,42.35
2023-03-16T12:56:27.839Z,44.09
2023-03-16T12:57:29.098Z,44.79
2023-03-16T12:58:28.832Z,44.29
2023-03-16T12:59:28.158Z,43.69
2023-03-16T13:00:28.096Z,43.40
2023-03-16T13:01:28.152Z,44.13
2023-03-16T13:02:27.910Z,44.05
2023-03-16T13:03:31.152Z,45.79
2023-03-16T13:04:51.756Z,44.98
2023-03-16T13:05:28.173Z,45.61
2023-03-16T13:06:28.034Z,46.62
2023-03-16T13:07:27.813Z,47.13
2023-03-16T13:08:28.045Z,47.74
2023-03-16T13:09:27.801Z,48.14
2023-03-16T13:10:28.294Z,46.92
2023-03-16T13:11:27.840Z,47.33
2023-03-16T13:12:28.089Z,47.43